createdAt,value
2023-04-08T00:00:17.746Z,8.22
2023-04-08T00:02:46.529Z,8.12
2023-04-08T00:05:17.419Z,8.06
2023-04-08T00:07:51.275Z,8.05
2023-04-08T00:10:19.706Z,8.05
2023-04-08T00:12:49.108Z,8.09
2023-04-08T00:15:17.793Z,8.08
2023-04-08T00:17:46.479Z,8.04
2023-04-08T00:20:16.402Z,8.02
2023-04-08T00:22:44.752Z,7.92
2023-04-08T00:25:15.613Z,7.80
2023-04-08T00:27:43.980Z,7.75
2023-04-08T00:30:12.700Z,7.69
2023-04-08T00:32:47.281Z,7.64
2023-04-08T00:35:16.725Z,7.63
2023-04-08T00:37:48.047Z,7.61
2023-04-08T00:40:21.198Z,7.55
2023-04-08T00:42:50.034Z,7.47
2023-04-08T00:45:18.569Z,7.42
2023-04-08T00:47:52.571Z,7.35
2023-04-08T00:50:21.425Z,7.31
2023-04-08T00:52:49.811Z,7.30
2023-04-08T00:55:21.745Z,7.26
2023-04-08T00:57:51.905Z,7.26
2023-04-08T01:00:20.408Z,7.23
2023-04-08T01:02:58.471Z,7.24
2023-04-08T01:05:31.847Z,7.25
2023-04-08T01:08:03.284Z,7.25
2023-04-08T01:10:41.558Z,7.24
2023-04-08T01:13:13.355Z,7.22
2023-04-08T01:15:45.454Z,7.18
2023-04-08T01:18:17.384Z,7.19
2023-04-08T01:20:46.744Z,7.19
2023-04-08T01:23:26.228Z,7.19
2023-04-08T01:25:56.729Z,7.20
2023-04-08T01:28:28.239Z,7.22
2023-04-08T01:30:58.919Z,7.25
2023-04-08T01:33:29.500Z,7.25
2023-04-08T01:36:00.077Z,7.23
2023-04-08T01:38:29.651Z,7.21
2023-04-08T01:40:59.847Z,7.19
2023-04-08T01:43:28.842Z,7.18
2023-04-08T01:45:58.609Z,7.21
2023-04-08T01:48:28.133Z,7.24
2023-04-08T01:50:57.956Z,7.23
2023-04-08T01:53:26.419Z,7.22
2023-04-08T01:56:02.830Z,7.23
2023-04-08T01:58:38.178Z,7.24
2023-04-08T02:01:11.212Z,7.22
2023-04-08T02:03:39.994Z,7.22
2023-04-08T02:06:08.463Z,7.21
2023-04-08T02:08:37.216Z,7.23
2023-04-08T02:11:07.237Z,7.19
2023-04-08T02:13:35.904Z,7.12
2023-04-08T02:16:11.130Z,7.08
2023-04-08T02:18:47.295Z,7.08
2023-04-08T02:21:18.827Z,7.06
2023-04-08T02:23:51.366Z,7.02
2023-04-08T02:26:23.490Z,7.02
2023-04-08T02:28:53.811Z,7.01
2023-04-08T02:31:23.004Z,7.01
2023-04-08T02:33:53.015Z,7.01
2023-04-08T02:36:22.190Z,7.00
2023-04-08T02:38:51.050Z,6.99
2023-04-08T02:41:21.395Z,6.96
2023-04-08T02:43:49.723Z,6.99
2023-04-08T02:46:19.458Z,6.97
2023-04-08T02:48:48.377Z,6.98
2023-04-08T02:51:18.881Z,7.00
2023-04-08T02:53:57.161Z,6.96
2023-04-08T02:56:27.921Z,6.93
2023-04-08T02:58:56.354Z,6.93
2023-04-08T03:01:25.969Z,6.96
2023-04-08T03:03:54.550Z,6.98
2023-04-08T03:06:23.102Z,6.95
2023-04-08T03:08:51.772Z,6.92
2023-04-08T03:11:21.163Z,6.95
2023-04-08T03:13:51.174Z,6.97
2023-04-08T03:16:19.706Z,6.97
2023-04-08T03:18:48.206Z,6.93
2023-04-08T03:21:16.896Z,6.91
2023-04-08T03:23:45.701Z,6.90
2023-04-08T03:26:14.032Z,6.88
2023-04-08T03:28:42.452Z,6.89
2023-04-08T03:31:12.389Z,6.88
2023-04-08T03:33:40.951Z,6.85
2023-04-08T03:36:09.968Z,6.85
2023-04-08T03:38:38.276Z,6.86
2023-04-08T03:41:06.664Z,6.87
2023-04-08T03:43:36.814Z,6.88
2023-04-08T03:46:06.450Z,6.89
2023-04-08T03:48:36.361Z,6.89
2023-04-08T03:51:04.908Z,6.89
2023-04-08T03:53:33.299Z,6.90
2023-04-08T03:56:02.769Z,6.93
2023-04-08T03:58:31.966Z,6.98
2023-04-08T04:01:00.562Z,7.00
2023-04-08T04:03:29.183Z,7.01
2023-04-08T04:05:59.069Z,7.05
2023-04-08T04:08:27.458Z,7.12
2023-04-08T04:10:55.865Z,7.18
2023-04-08T04:13:24.404Z,7.21
2023-04-08T04:15:52.880Z,7.21
2023-04-08T04:18:21.511Z,7.21
2023-04-08T04:20:49.827Z,7.23
2023-04-08T04:23:19.590Z,7.24
2023-04-08T04:25:48.037Z,7.25
2023-04-08T04:28:16.348Z,7.26
2023-04-08T04:30:45.684Z,7.29
2023-04-08T04:33:14.084Z,7.30
2023-04-08T04:35:42.522Z,7.32
2023-04-08T04:38:12.761Z,7.33
2023-04-08T04:40:42.496Z,7.26
2023-04-08T04:43:11.252Z,7.24
2023-04-08T04:45:39.754Z,7.26
2023-04-08T04:48:08.288Z,7.28
2023-04-08T04:50:36.630Z,7.29
2023-04-08T04:53:10.722Z,7.29
2023-04-08T04:55:39.379Z,7.31
2023-04-08T04:58:09.101Z,7.33
2023-04-08T05:00:37.825Z,7.34
2023-04-08T05:03:06.369Z,7.37
2023-04-08T05:05:34.780Z,7.40
2023-04-08T05:08:03.216Z,7.44
2023-04-08T05:10:31.800Z,7.46
2023-04-08T05:13:00.708Z,7.50
2023-04-08T05:15:30.384Z,7.52
2023-04-08T05:17:58.715Z,7.54
2023-04-08T05:20:27.121Z,7.52
2023-04-08T05:22:55.418Z,7.51
2023-04-08T05:25:23.981Z,7.51
2023-04-08T05:27:52.783Z,7.47
2023-04-08T05:30:21.734Z,7.44
2023-04-08T05:32:51.457Z,7.43
2023-04-08T05:35:21.552Z,7.45
2023-04-08T05:37:49.931Z,7.48
2023-04-08T05:40:20.570Z,7.49
2023-04-08T05:42:48.933Z,7.48
2023-04-08T05:45:17.370Z,7.53
2023-04-08T05:47:45.906Z,7.56
2023-04-08T05:50:16.037Z,7.58
2023-04-08T05:52:45.742Z,7.64
2023-04-08T05:55:15.236Z,7.69
2023-04-08T05:57:44.362Z,7.74
2023-04-08T06:00:13.216Z,7.78
2023-04-08T06:02:41.950Z,7.82
2023-04-08T06:05:11.035Z,7.84
2023-04-08T06:07:40.735Z,7.86
2023-04-08T06:10:10.107Z,7.87
2023-04-08T06:12:39.672Z,7.90
2023-04-08T06:15:09.567Z,7.90
2023-04-08T06:17:38.322Z,7.89
2023-04-08T06:20:09.412Z,7.84
2023-04-08T06:22:38.102Z,7.82
2023-04-08T06:25:08.322Z,7.83
2023-04-08T06:27:36.716Z,7.80
2023-04-08T06:30:05.441Z,7.80
2023-04-08T06:32:34.085Z,7.77
2023-04-08T06:35:02.568Z,7.76
2023-04-08T06:37:30.956Z,7.75
2023-04-08T06:39:59.425Z,7.74
2023-04-08T06:42:29.221Z,7.78
2023-04-08T06:44:58.601Z,7.82
2023-04-08T06:47:27.162Z,7.86
2023-04-08T06:49:55.635Z,7.96
2023-04-08T06:52:24.116Z,8.04
2023-04-08T06:54:52.500Z,8.11
2023-04-08T06:57:21.750Z,8.14
2023-04-08T06:59:53.071Z,8.17
2023-04-08T07:02:22.944Z,8.22
2023-04-08T07:04:51.621Z,8.27
2023-04-08T07:07:20.830Z,8.25
2023-04-08T07:09:49.200Z,8.25
2023-04-08T07:12:17.587Z,8.25
2023-04-08T07:14:46.121Z,8.20
2023-04-08T07:17:16.152Z,8.17
2023-04-08T07:19:44.854Z,8.22
2023-04-08T07:22:13.352Z,8.15
2023-04-08T07:24:42.934Z,8.10
2023-04-08T07:27:11.518Z,8.07
2023-04-08T07:29:39.982Z,8.08
2023-04-08T07:32:08.527Z,8.07
2023-04-08T07:34:38.716Z,8.00
2023-04-08T07:37:07.143Z,7.92
2023-04-08T07:39:35.592Z,7.91
2023-04-08T07:42:04.099Z,7.88
2023-04-08T07:44:32.447Z,7.82
2023-04-08T07:47:00.814Z,7.84
2023-04-08T07:49:29.217Z,7.88
2023-04-08T07:51:59.616Z,7.91
2023-04-08T07:54:28.240Z,7.91
2023-04-08T07:56:57.087Z,7.88
2023-04-08T07:59:26.101Z,7.85
2023-04-08T08:01:54.571Z,7.87
2023-04-08T08:04:25.970Z,7.91
2023-04-08T08:06:54.700Z,7.93
2023-04-08T08:09:24.575Z,7.98
2023-04-08T08:11:53.016Z,8.03
2023-04-08T08:14:22.481Z,8.07
2023-04-08T08:16:50.848Z,8.04
2023-04-08T08:19:19.193Z,7.94
2023-04-08T08:21:47.756Z,7.80
2023-04-08T08:24:16.661Z,7.69
2023-04-08T08:26:47.354Z,7.63
2023-04-08T08:29:15.875Z,7.60
2023-04-08T08:31:44.314Z,7.62
2023-04-08T08:34:12.755Z,7.65
2023-04-08T08:36:41.200Z,7.67
2023-04-08T08:39:09.717Z,7.72
2023-04-08T08:41:38.226Z,7.68
2023-04-08T08:44:09.634Z,7.65
2023-04-08T08:46:38.104Z,7.64
2023-04-08T08:49:06.528Z,7.55
2023-04-08T08:51:35.370Z,7.53
2023-04-08T08:54:04.298Z,7.53
2023-04-08T08:56:34.612Z,7.53
2023-04-08T08:59:03.098Z,7.54
2023-04-08T09:01:34.644Z,7.49
2023-04-08T09:04:14.444Z,7.46
2023-04-08T09:06:47.738Z,7.53
2023-04-08T09:09:16.386Z,7.54
2023-04-08T09:11:46.652Z,7.55
2023-04-08T09:14:24.098Z,7.65
2023-04-08T09:16:54.390Z,7.72
2023-04-08T09:19:23.309Z,7.77
2023-04-08T09:22:07.380Z,7.78
2023-04-08T09:24:37.239Z,7.79
2023-04-08T09:27:06.159Z,7.80
2023-04-08T09:29:38.146Z,7.79
2023-04-08T09:32:09.557Z,7.79
2023-04-08T09:34:38.059Z,7.71
2023-04-08T09:37:07.264Z,7.64
2023-04-08T09:39:36.202Z,7.63
2023-04-08T09:42:09.269Z,7.60
2023-04-08T09:44:39.078Z,7.53
2023-04-08T09:47:13.959Z,7.41
2023-04-08T09:49:47.759Z,7.28
2023-04-08T09:52:25.452Z,7.19
2023-04-08T09:54:56.050Z,7.04
2023-04-08T09:57:33.592Z,7.02
2023-04-08T10:00:09.796Z,6.93
2023-04-08T10:02:47.389Z,6.84
2023-04-08T10:05:18.461Z,6.83
2023-04-08T10:07:56.471Z,6.80
2023-04-08T10:10:25.473Z,6.74
2023-04-08T10:12:54.321Z,6.76
2023-04-08T10:15:26.924Z,6.80
2023-04-08T10:17:58.233Z,6.84
2023-04-08T10:20:46.006Z,6.86
2023-04-08T10:23:15.831Z,6.94
2023-04-08T10:25:45.541Z,6.98
2023-04-08T10:28:27.377Z,6.95
2023-04-08T10:30:57.588Z,7.05
2023-04-08T10:33:34.821Z,7.13
2023-04-08T10:36:11.389Z,7.20
2023-04-08T10:38:42.391Z,7.28
2023-04-08T10:41:12.049Z,7.33
2023-04-08T10:43:40.449Z,7.28
2023-04-08T10:46:11.998Z,7.28
2023-04-08T10:48:41.909Z,7.30
2023-04-08T10:51:10.297Z,7.36
2023-04-08T10:53:40.409Z,7.36
2023-04-08T10:56:11.099Z,7.28
2023-04-08T10:58:51.800Z,7.26
2023-04-08T11:01:21.329Z,7.23
2023-04-08T11:03:52.318Z,7.18
2023-04-08T11:06:21.190Z,7.23
2023-04-08T11:08:49.586Z,7.19
2023-04-08T11:11:18.077Z,7.13
2023-04-08T11:13:53.408Z,7.15
2023-04-08T11:16:24.519Z,7.25
2023-04-08T11:18:55.554Z,7.29
2023-04-08T11:21:25.711Z,7.38
2023-04-08T11:23:54.456Z,7.46
2023-04-08T11:26:24.217Z,7.53
2023-04-08T11:28:57.547Z,7.61
2023-04-08T11:31:26.200Z,7.65
2023-04-08T11:33:56.740Z,7.67
2023-04-08T11:36:26.146Z,7.65
2023-04-08T11:38:55.622Z,7.63
2023-04-08T11:41:26.648Z,7.57
2023-04-08T11:43:56.751Z,7.51
2023-04-08T11:46:25.913Z,7.42
2023-04-08T11:49:03.286Z,7.42
2023-04-08T11:51:32.259Z,7.37
2023-04-08T11:54:00.816Z,7.40
2023-04-08T11:56:30.612Z,7.41
2023-04-08T11:58:58.949Z,7.37
2023-04-08T12:01:28.110Z,7.33
2023-04-08T12:03:58.562Z,7.25
2023-04-08T12:06:32.450Z,7.17
2023-04-08T12:09:01.090Z,7.18
2023-04-08T12:11:29.521Z,7.21
2023-04-08T12:13:57.888Z,7.14
2023-04-08T12:16:26.539Z,7.08
2023-04-08T12:18:55.166Z,7.02
2023-04-08T12:21:25.687Z,7.06
2023-04-08T12:23:55.485Z,7.08
2023-04-08T12:26:27.096Z,7.07
2023-04-08T12:28:55.560Z,7.01
2023-04-08T12:31:24.982Z,7.02
2023-04-08T12:33:53.915Z,7.02
2023-04-08T12:36:22.406Z,6.99
2023-04-08T12:38:51.112Z,7.00
2023-04-08T12:41:21.775Z,7.02
2023-04-08T12:43:50.321Z,6.93
2023-04-08T12:46:25.873Z,6.89
2023-04-08T12:49:03.125Z,6.90
2023-04-08T12:51:32.516Z,6.93
2023-04-08T12:54:02.088Z,6.88
2023-04-08T12:56:32.987Z,6.78
2023-04-08T12:59:02.083Z,6.72
2023-04-08T13:01:31.139Z,6.68
2023-04-08T13:04:00.242Z,6.72
2023-04-08T13:06:29.036Z,6.81
2023-04-08T13:09:01.826Z,6.76
2023-04-08T13:11:34.072Z,6.80
2023-04-08T13:14:03.489Z,6.81
2023-04-08T13:16:32.128Z,6.84
2023-04-08T13:19:00.643Z,6.83
2023-04-08T13:21:29.121Z,6.90
2023-04-08T13:23:57.485Z,6.92
2023-04-08T13:26:26.540Z,6.96
2023-04-08T13:28:57.636Z,6.95
2023-04-08T13:31:27.120Z,6.97
2023-04-08T13:33:58.183Z,6.96
2023-04-08T13:36:28.900Z,6.97
2023-04-08T13:38:57.864Z,6.93
2023-04-08T13:41:28.347Z,6.87
2023-04-08T13:43:58.496Z,6.81
2023-04-08T13:46:27.873Z,6.78
2023-04-08T13:48:56.358Z,6.74
2023-04-08T13:51:27.357Z,6.77
2023-04-08T13:53:56.164Z,6.82
2023-04-08T13:56:24.711Z,6.81
2023-04-08T13:58:57.604Z,6.80
2023-04-08T14:01:28.703Z,6.73
2023-04-08T14:03:57.248Z,6.68
2023-04-08T14:06:27.425Z,6.62
2023-04-08T14:08:56.532Z,6.63
2023-04-08T14:11:26.436Z,6.63
2023-04-08T14:13:54.960Z,6.64
2023-04-08T14:16:23.573Z,6.72
2023-04-08T14:18:53.665Z,6.76
2023-04-08T14:21:22.226Z,6.78
2023-04-08T14:23:51.269Z,6.73
2023-04-08T14:26:20.069Z,6.68
2023-04-08T14:28:48.876Z,6.69
2023-04-08T14:31:17.717Z,6.63
2023-04-08T14:33:46.180Z,6.60
2023-04-08T14:36:16.081Z,6.62
2023-04-08T14:38:44.551Z,6.60
2023-04-08T14:41:16.536Z,6.58
2023-04-08T14:43:44.964Z,6.53
2023-04-08T14:46:13.448Z,6.51
2023-04-08T14:48:42.289Z,6.46
2023-04-08T14:51:10.971Z,6.40
2023-04-08T14:53:40.688Z,6.36
2023-04-08T14:56:10.850Z,6.38
2023-04-08T14:58:39.288Z,6.35
2023-04-08T15:01:07.730Z,6.33
2023-04-08T15:03:36.295Z,6.29
2023-04-08T15:06:06.361Z,6.25
2023-04-08T15:08:35.712Z,6.28
2023-04-08T15:11:05.656Z,6.34
2023-04-08T15:13:37.571Z,6.41
2023-04-08T15:16:06.330Z,6.46
2023-04-08T15:18:34.835Z,6.47
2023-04-08T15:21:03.353Z,6.45
2023-04-08T15:23:31.771Z,6.49
2023-04-08T15:26:00.150Z,6.48
2023-04-08T15:28:29.922Z,6.53
2023-04-08T15:30:58.320Z,6.53
2023-04-08T15:33:28.661Z,6.56
2023-04-08T15:35:57.550Z,6.59
2023-04-08T15:38:28.794Z,6.64
2023-04-08T15:40:57.189Z,6.58
2023-04-08T15:43:26.932Z,6.53
2023-04-08T15:45:56.662Z,6.42
2023-04-08T15:48:25.030Z,6.41
2023-04-08T15:50:53.598Z,6.44
2023-04-08T15:53:22.042Z,6.42
2023-04-08T15:55:50.737Z,6.41
2023-04-08T15:58:19.116Z,6.39
2023-04-08T16:00:47.533Z,6.34
2023-04-08T16:03:17.520Z,6.36
2023-04-08T16:05:46.365Z,6.36
2023-04-08T16:08:15.281Z,6.37
2023-04-08T16:10:44.034Z,6.37
2023-04-08T16:13:12.711Z,6.34
2023-04-08T16:15:41.157Z,6.40
2023-04-08T16:18:09.937Z,6.40
2023-04-08T16:20:40.195Z,6.39
2023-04-08T16:23:08.723Z,6.34
2023-04-08T16:25:40.455Z,6.36
2023-04-08T16:28:09.295Z,6.32
2023-04-08T16:30:37.997Z,6.25
2023-04-08T16:33:07.131Z,6.22
2023-04-08T16:35:35.627Z,6.21
2023-04-08T16:38:06.109Z,6.20
2023-04-08T16:40:34.649Z,6.24
2023-04-08T16:43:04.199Z,6.28
2023-04-08T16:45:33.424Z,6.28
2023-04-08T16:48:02.035Z,6.30
2023-04-08T16:50:31.228Z,6.30
2023-04-08T16:52:59.641Z,6.28
2023-04-08T16:55:34.005Z,6.18
2023-04-08T16:58:03.034Z,6.06
2023-04-08T17:00:32.164Z,6.05
2023-04-08T17:03:00.760Z,6.02
2023-04-08T17:05:29.261Z,6.07
2023-04-08T17:07:57.685Z,6.13
2023-04-08T17:10:26.610Z,6.19
2023-04-08T17:12:57.841Z,6.23
2023-04-08T17:15:27.449Z,6.26
2023-04-08T17:17:56.040Z,6.26
2023-04-08T17:20:24.911Z,6.28
2023-04-08T17:22:53.310Z,6.28
2023-04-08T17:25:21.766Z,6.26
2023-04-08T17:28:01.534Z,6.24
2023-04-08T17:30:30.737Z,6.22
2023-04-08T17:32:59.120Z,6.23
2023-04-08T17:35:28.510Z,6.23
2023-04-08T17:37:57.036Z,6.21
2023-04-08T17:40:26.497Z,6.24
2023-04-08T17:42:54.934Z,6.23
2023-04-08T17:45:24.912Z,6.22
2023-04-08T17:47:54.985Z,6.23
2023-04-08T17:50:23.399Z,6.23
2023-04-08T17:52:51.889Z,6.26
2023-04-08T17:55:20.457Z,6.30
2023-04-08T17:57:49.801Z,6.32
2023-04-08T18:00:18.305Z,6.33
2023-04-08T18:02:50.357Z,6.34
2023-04-08T18:05:19.079Z,6.35
2023-04-08T18:07:54.049Z,6.37
2023-04-08T18:10:23.100Z,6.39
2023-04-08T18:13:03.728Z,6.40
2023-04-08T18:15:37.557Z,6.38
2023-04-08T18:18:07.432Z,6.34
2023-04-08T18:20:36.707Z,6.32
2023-04-08T18:23:05.524Z,6.32
2023-04-08T18:25:34.473Z,6.30
2023-04-08T18:28:05.724Z,6.28
2023-04-08T18:30:35.716Z,6.26
2023-04-08T18:33:04.235Z,6.23
2023-04-08T18:35:34.061Z,6.23
2023-04-08T18:38:02.466Z,6.23
2023-04-08T18:40:31.493Z,6.25
2023-04-08T18:43:06.174Z,6.24
2023-04-08T18:45:34.550Z,6.24
2023-04-08T18:48:02.949Z,6.24
2023-04-08T18:50:31.403Z,6.21
2023-04-08T18:53:01.253Z,6.13
2023-04-08T18:55:35.904Z,6.10
2023-04-08T18:58:04.766Z,6.06
2023-04-08T19:00:33.174Z,6.05
2023-04-08T19:03:03.393Z,6.08
2023-04-08T19:05:32.944Z,6.09
2023-04-08T19:08:02.877Z,6.13
2023-04-08T19:10:31.616Z,6.11
2023-04-08T19:13:00.506Z,6.10
2023-04-08T19:15:30.077Z,6.05
2023-04-08T19:17:59.014Z,6.06
2023-04-08T19:20:28.661Z,6.04
2023-04-08T19:22:57.335Z,5.99
2023-04-08T19:25:27.201Z,5.99
2023-04-08T19:27:55.771Z,5.99
2023-04-08T19:30:24.209Z,5.98
2023-04-08T19:32:52.662Z,6.04
2023-04-08T19:35:21.083Z,6.07
2023-04-08T19:37:49.549Z,6.06
2023-04-08T19:40:18.650Z,6.13
2023-04-08T19:42:48.498Z,6.18
2023-04-08T19:45:17.518Z,6.21
2023-04-08T19:47:47.011Z,6.20
2023-04-08T19:50:15.555Z,6.19
2023-04-08T19:52:44.152Z,6.18
2023-04-08T19:55:12.710Z,6.17
2023-04-08T19:57:41.107Z,6.17
2023-04-08T20:00:14.254Z,6.13
2023-04-08T20:02:43.027Z,6.06
2023-04-08T20:05:14.959Z,6.03
2023-04-08T20:07:43.384Z,6.04
2023-04-08T20:10:13.299Z,6.05
2023-04-08T20:12:42.492Z,6.10
2023-04-08T20:15:23.654Z,6.14
2023-04-08T20:17:53.988Z,6.15
2023-04-08T20:20:22.813Z,6.17
2023-04-08T20:22:51.326Z,6.20
2023-04-08T20:25:19.941Z,6.22
2023-04-08T20:27:48.317Z,6.23
2023-04-08T20:30:18.452Z,6.21
2023-04-08T20:32:47.245Z,6.17
2023-04-08T20:35:15.782Z,6.18
2023-04-08T20:37:44.108Z,6.19
2023-04-08T20:40:12.932Z,6.18
2023-04-08T20:42:41.303Z,6.21
2023-04-08T20:45:11.608Z,6.20
2023-04-08T20:47:41.800Z,6.18
2023-04-08T20:50:11.371Z,6.16
2023-04-08T20:52:39.775Z,6.11
2023-04-08T20:55:09.188Z,6.16
2023-04-08T20:57:37.652Z,6.15
2023-04-08T21:00:07.638Z,6.11
2023-04-08T21:02:36.565Z,6.09
2023-04-08T21:05:06.915Z,6.06
2023-04-08T21:07:35.733Z,6.03
2023-04-08T21:10:04.330Z,6.04
2023-04-08T21:12:32.688Z,6.08
2023-04-08T21:15:01.037Z,6.09
2023-04-08T21:17:31.936Z,6.10
2023-04-08T21:20:00.336Z,6.11
2023-04-08T21:22:31.237Z,6.10
2023-04-08T21:24:59.613Z,6.08
2023-04-08T21:27:32.626Z,6.10
2023-04-08T21:30:01.186Z,6.13
2023-04-08T21:32:30.617Z,6.16
2023-04-08T21:34:59.274Z,6.15
2023-04-08T21:37:27.847Z,6.13
2023-04-08T21:39:57.589Z,6.12
2023-04-08T21:42:27.536Z,6.11
2023-04-08T21:44:56.648Z,6.11
2023-04-08T21:47:25.181Z,6.10
2023-04-08T21:49:53.739Z,6.09
2023-04-08T21:52:22.678Z,6.13
2023-04-08T21:54:51.705Z,6.17
2023-04-08T21:57:21.637Z,6.20
2023-04-08T21:59:50.028Z,6.21
2023-04-08T22:02:18.595Z,6.16
2023-04-08T22:04:54.816Z,6.05
2023-04-08T22:07:23.243Z,6.00
2023-04-08T22:09:51.882Z,5.97
2023-04-08T22:12:21.690Z,5.97
2023-04-08T22:14:50.275Z,6.01
2023-04-08T22:17:18.986Z,6.02
2023-04-08T22:19:47.398Z,5.99
2023-04-08T22:22:15.857Z,5.96
2023-04-08T22:24:44.203Z,5.90
2023-04-08T22:27:12.655Z,5.91
2023-04-08T22:29:42.426Z,5.87
2023-04-08T22:32:10.900Z,5.90
2023-04-08T22:34:39.288Z,5.88
2023-04-08T22:37:07.814Z,5.84
2023-04-08T22:39:36.619Z,5.78
2023-04-08T22:42:05.075Z,5.74
2023-04-08T22:44:33.421Z,5.73
2023-04-08T22:47:03.245Z,5.73
2023-04-08T22:49:33.171Z,5.77
2023-04-08T22:52:01.565Z,5.84
2023-04-08T22:54:29.952Z,5.90
2023-04-08T22:56:58.449Z,5.95
2023-04-08T22:59:26.812Z,6.00
2023-04-08T23:01:55.603Z,5.99
2023-04-08T23:04:25.711Z,6.02
2023-04-08T23:06:54.320Z,5.99
2023-04-08T23:09:24.548Z,5.95
2023-04-08T23:11:52.946Z,5.92
2023-04-08T23:14:21.364Z,5.88
2023-04-08T23:16:49.861Z,5.85
2023-04-08T23:19:18.300Z,5.82
2023-04-08T23:21:48.112Z,5.82
2023-04-08T23:24:16.517Z,5.82
2023-04-08T23:26:46.134Z,5.82
2023-04-08T23:29:14.757Z,5.79
2023-04-08T23:31:43.734Z,5.79
2023-04-08T23:34:12.187Z,5.77
2023-04-08T23:36:40.637Z,5.74
2023-04-08T23:39:10.465Z,5.76
2023-04-08T23:41:38.950Z,5.79
2023-04-08T23:44:07.308Z,5.78
2023-04-08T23:46:36.263Z,5.77
2023-04-08T23:49:04.796Z,5.78
2023-04-08T23:51:34.217Z,5.80
2023-04-08T23:54:02.510Z,5.81
2023-04-08T23:56:33.814Z,5.83
2023-04-08T23:59:02.213Z,5.85
